Terminal Aerodrome Forecast
Issued by NWS Shreveport, LA

Home | Current Version | Previous Version | Text Only | Print | Product List | Glossary On
Versions: 1 2 3 4 5 6 7 8 9 10 11 12 13 14 15 16 17 18 19 20 21 22 23 24 25 26 27 28 29
000
FTUS44 KSHV 221019 AAB
TAFMLU
TAF AMD
KMLU 221019Z 2210/2306 02006KT P6SM VCTS SCT004 OVC012CB
      TEMPO 2210/2213 2SM TSRA BR OVC002CB
     FM221400 08006KT P6SM OVC010
     FM221700 11007KT P6SM VCTS OVC015CB
     FM230100 17005KT 4SM BR OVC005=

USA.gov is the U.S. government's official web portal to all federal, state and local government web resources and services.